sensor_id;sensor_type;location;lat;lon;timestamp;pressure;altitude;pressure_sealevel;temperature;humidity
8575;BME280;4325;42.520;27.448;2023-07-28T00:00:11;100923.47;;;18.43;100.00
8575;BME280;4325;42.520;27.448;2023-07-28T00:02:38;100942.38;;;18.41;100.00
8575;BME280;4325;42.520;27.448;2023-07-28T00:05:06;100931.91;;;18.38;100.00
8575;BME280;4325;42.520;27.448;2023-07-28T00:07:32;100940.38;;;18.33;100.00
8575;BME280;4325;42.520;27.448;2023-07-28T00:10:02;100930.84;;;18.17;100.00
8575;BME280;4325;42.520;27.448;2023-07-28T00:12:28;100936.19;;;18.14;100.00
8575;BME280;4325;42.520;27.448;2023-07-28T00:14:55;100933.88;;;18.07;100.00
8575;BME280;4325;42.520;27.448;2023-07-28T00:17:24;100935.66;;;18.03;100.00
8575;BME280;4325;42.520;27.448;2023-07-28T00:19:51;100945.09;;;18.02;100.00
8575;BME280;4325;42.520;27.448;2023-07-28T00:22:17;100941.56;;;18.10;100.00
8575;BME280;4325;42.520;27.448;2023-07-28T00:24:44;100943.19;;;18.11;100.00
8575;BME280;4325;42.520;27.448;2023-07-28T00:27:11;100943.66;;;18.13;100.00
8575;BME280;4325;42.520;27.448;2023-07-28T00:29:40;100941.91;;;18.17;100.00
8575;BME280;4325;42.520;27.448;2023-07-28T00:32:07;100959.53;;;18.21;100.00
8575;BME280;4325;42.520;27.448;2023-07-28T00:34:35;100954.63;;;18.18;100.00
8575;BME280;4325;42.520;27.448;2023-07-28T00:37:02;100952.81;;;18.14;100.00
8575;BME280;4325;42.520;27.448;2023-07-28T00:39:29;100955.91;;;18.12;100.00
8575;BME280;4325;42.520;27.448;2023-07-28T00:41:56;100972.78;;;18.02;100.00
8575;BME280;4325;42.520;27.448;2023-07-28T00:44:23;100965.47;;;17.84;100.00
8575;BME280;4325;42.520;27.448;2023-07-28T00:46:50;100961.22;;;17.78;100.00
8575;BME280;4325;42.520;27.448;2023-07-28T00:49:17;100960.22;;;17.74;100.00
8575;BME280;4325;42.520;27.448;2023-07-28T00:51:46;100956.28;;;17.75;100.00
8575;BME280;4325;42.520;27.448;2023-07-28T00:54:13;100953.72;;;17.78;100.00
8575;BME280;4325;42.520;27.448;2023-07-28T00:56:40;100952.78;;;17.83;100.00
8575;BME280;4325;42.520;27.448;2023-07-28T00:59:07;100959.81;;;17.89;100.00
8575;BME280;4325;42.520;27.448;2023-07-28T01:01:34;100944.50;;;17.92;100.00
8575;BME280;4325;42.520;27.448;2023-07-28T01:04:01;100950.88;;;17.92;100.00
8575;BME280;4325;42.520;27.448;2023-07-28T01:06:35;100959.44;;;17.82;100.00
8575;BME280;4325;42.520;27.448;2023-07-28T01:09:09;100957.81;;;17.81;100.00
8575;BME280;4325;42.520;27.448;2023-07-28T01:11:36;100965.31;;;17.80;100.00
8575;BME280;4325;42.520;27.448;2023-07-28T01:14:03;100961.53;;;17.76;100.00
8575;BME280;4325;42.520;27.448;2023-07-28T01:16:30;100970.50;;;17.82;100.00
8575;BME280;4325;42.520;27.448;2023-07-28T01:18:57;100970.47;;;17.73;100.00
8575;BME280;4325;42.520;27.448;2023-07-28T01:21:26;100979.06;;;17.72;100.00
8575;BME280;4325;42.520;27.448;2023-07-28T01:23:59;100979.31;;;17.62;100.00
8575;BME280;4325;42.520;27.448;2023-07-28T01:26:32;100994.72;;;17.54;100.00
8575;BME280;4325;42.520;27.448;2023-07-28T01:29:00;100979.13;;;17.58;100.00
8575;BME280;4325;42.520;27.448;2023-07-28T01:31:29;100988.53;;;17.57;100.00
8575;BME280;4325;42.520;27.448;2023-07-28T01:33:55;100988.88;;;17.56;100.00
8575;BME280;4325;42.520;27.448;2023-07-28T01:36:22;100986.44;;;17.54;100.00
8575;BME280;4325;42.520;27.448;2023-07-28T01:38:49;100980.34;;;17.52;100.00
8575;BME280;4325;42.520;27.448;2023-07-28T01:41:16;100974.59;;;17.49;100.00
8575;BME280;4325;42.520;27.448;2023-07-28T01:43:45;100977.38;;;17.49;100.00
8575;BME280;4325;42.520;27.448;2023-07-28T01:46:11;100975.72;;;17.48;100.00
8575;BME280;4325;42.520;27.448;2023-07-28T01:48:38;100985.47;;;17.45;100.00
8575;BME280;4325;42.520;27.448;2023-07-28T01:51:05;100993.47;;;17.47;100.00
8575;BME280;4325;42.520;27.448;2023-07-28T01:53:32;100992.34;;;17.48;100.00
8575;BME280;4325;42.520;27.448;2023-07-28T01:55:59;101004.38;;;17.57;100.00
8575;BME280;4325;42.520;27.448;2023-07-28T01:58:26;101004.97;;;17.54;100.00
8575;BME280;4325;42.520;27.448;2023-07-28T02:00:55;100997.47;;;17.41;100.00
8575;BME280;4325;42.520;27.448;2023-07-28T02:03:22;100996.25;;;17.33;100.00
8575;BME280;4325;42.520;27.448;2023-07-28T02:05:49;101011.75;;;17.34;100.00
8575;BME280;4325;42.520;27.448;2023-07-28T02:08:15;101000.88;;;17.38;100.00
8575;BME280;4325;42.520;27.448;2023-07-28T02:10:44;101001.69;;;17.38;100.00
8575;BME280;4325;42.520;27.448;2023-07-28T02:13:11;101012.97;;;17.42;100.00
8575;BME280;4325;42.520;27.448;2023-07-28T02:15:37;101012.34;;;17.45;100.00
8575;BME280;4325;42.520;27.448;2023-07-28T02:18:06;101025.66;;;17.43;100.00
8575;BME280;4325;42.520;27.448;2023-07-28T02:20:33;101022.41;;;17.41;100.00
8575;BME280;4325;42.520;27.448;2023-07-28T02:23:01;101029.59;;;17.42;100.00
8575;BME280;4325;42.520;27.448;2023-07-28T02:25:28;101025.38;;;17.44;100.00
8575;BME280;4325;42.520;27.448;2023-07-28T02:27:54;101023.94;;;17.47;100.00
8575;BME280;4325;42.520;27.448;2023-07-28T02:30:21;101018.91;;;17.49;100.00
8575;BME280;4325;42.520;27.448;2023-07-28T02:32:48;101032.66;;;17.54;100.00
8575;BME280;4325;42.520;27.448;2023-07-28T02:35:17;101039.03;;;17.54;100.00
8575;BME280;4325;42.520;27.448;2023-07-28T02:37:44;101033.25;;;17.51;100.00
8575;BME280;4325;42.520;27.448;2023-07-28T02:40:11;101036.63;;;17.48;100.00
8575;BME280;4325;42.520;27.448;2023-07-28T02:42:38;101046.91;;;17.47;100.00
8575;BME280;4325;42.520;27.448;2023-07-28T02:45:06;101040.47;;;17.52;100.00
8575;BME280;4325;42.520;27.448;2023-07-28T02:47:35;101034.28;;;17.55;100.00
8575;BME280;4325;42.520;27.448;2023-07-28T02:50:02;101038.50;;;17.52;100.00
8575;BME280;4325;42.520;27.448;2023-07-28T02:52:31;101038.78;;;17.51;100.00
8575;BME280;4325;42.520;27.448;2023-07-28T02:54:58;101030.47;;;17.51;100.00
8575;BME280;4325;42.520;27.448;2023-07-28T02:57:25;101023.84;;;17.52;100.00
8575;BME280;4325;42.520;27.448;2023-07-28T02:59:52;101037.59;;;17.57;100.00
8575;BME280;4325;42.520;27.448;2023-07-28T03:02:19;101029.28;;;17.57;100.00
8575;BME280;4325;42.520;27.448;2023-07-28T03:04:45;101035.63;;;17.57;100.00
8575;BME280;4325;42.520;27.448;2023-07-28T03:07:13;101035.44;;;17.54;100.00
8575;BME280;4325;42.520;27.448;2023-07-28T03:09:41;101030.41;;;17.56;100.00
8575;BME280;4325;42.520;27.448;2023-07-28T03:12:08;101035.22;;;17.64;100.00
8575;BME280;4325;42.520;27.448;2023-07-28T03:14:35;101033.94;;;17.70;100.00
8575;BME280;4325;42.520;27.448;2023-07-28T03:17:02;101039.59;;;17.65;100.00
8575;BME280;4325;42.520;27.448;2023-07-28T03:19:29;101048.22;;;17.63;100.00
8575;BME280;4325;42.520;27.448;2023-07-28T03:21:56;101051.53;;;17.52;100.00
8575;BME280;4325;42.520;27.448;2023-07-28T03:24:23;101050.91;;;17.55;100.00
8575;BME280;4325;42.520;27.448;2023-07-28T03:26:52;101055.81;;;17.58;100.00
8575;BME280;4325;42.520;27.448;2023-07-28T03:29:18;101056.66;;;17.58;100.00
8575;BME280;4325;42.520;27.448;2023-07-28T03:31:45;101066.28;;;17.61;100.00
8575;BME280;4325;42.520;27.448;2023-07-28T03:34:12;101060.75;;;17.61;100.00
8575;BME280;4325;42.520;27.448;2023-07-28T03:36:39;101071.09;;;17.69;100.00
8575;BME280;4325;42.520;27.448;2023-07-28T03:39:06;101074.88;;;17.73;100.00
8575;BME280;4325;42.520;27.448;2023-07-28T03:41:33;101082.25;;;17.77;100.00
8575;BME280;4325;42.520;27.448;2023-07-28T03:44:01;101072.38;;;17.85;100.00
8575;BME280;4325;42.520;27.448;2023-07-28T03:46:28;101067.22;;;17.92;100.00
8575;BME280;4325;42.520;27.448;2023-07-28T03:48:55;101072.41;;;18.07;100.00
8575;BME280;4325;42.520;27.448;2023-07-28T03:51:24;101070.03;;;18.14;100.00
8575;BME280;4325;42.520;27.448;2023-07-28T03:53:50;101068.91;;;18.15;100.00
8575;BME280;4325;42.520;27.448;2023-07-28T03:56:17;101069.81;;;18.11;100.00
8575;BME280;4325;42.520;27.448;2023-07-28T03:58:44;101075.78;;;18.18;100.00
8575;BME280;4325;42.520;27.448;2023-07-28T04:01:12;101076.94;;;18.25;99.10
8575;BME280;4325;42.520;27.448;2023-07-28T04:03:39;101087.78;;;18.35;97.49
8575;BME280;4325;42.520;27.448;2023-07-28T04:06:11;101087.03;;;18.43;94.58
8575;BME280;4325;42.520;27.448;2023-07-28T04:08:38;101083.03;;;18.50;95.45
8575;BME280;4325;42.520;27.448;2023-07-28T04:11:05;101086.94;;;18.49;94.67
8575;BME280;4325;42.520;27.448;2023-07-28T04:13:33;101093.63;;;18.48;100.00
8575;BME280;4325;42.520;27.448;2023-07-28T04:16:00;101095.66;;;18.56;100.00
8575;BME280;4325;42.520;27.448;2023-07-28T04:18:28;101097.84;;;18.67;100.00
8575;BME280;4325;42.520;27.448;2023-07-28T04:20:55;101098.09;;;18.57;100.00
8575;BME280;4325;42.520;27.448;2023-07-28T04:23:22;101108.25;;;18.62;100.00
8575;BME280;4325;42.520;27.448;2023-07-28T04:25:49;101110.88;;;18.67;100.00
8575;BME280;4325;42.520;27.448;2023-07-28T04:28:15;101110.00;;;18.58;100.00
8575;BME280;4325;42.520;27.448;2023-07-28T04:30:42;101111.94;;;18.79;100.00
8575;BME280;4325;42.520;27.448;2023-07-28T04:33:09;101110.09;;;18.97;100.00
8575;BME280;4325;42.520;27.448;2023-07-28T04:35:37;101108.44;;;18.96;100.00
8575;BME280;4325;42.520;27.448;2023-07-28T04:38:04;101114.72;;;18.79;100.00
8575;BME280;4325;42.520;27.448;2023-07-28T04:40:31;101107.09;;;18.85;100.00
8575;BME280;4325;42.520;27.448;2023-07-28T04:42:58;101111.38;;;18.91;100.00
8575;BME280;4325;42.520;27.448;2023-07-28T04:45:25;101119.53;;;18.96;100.00
8575;BME280;4325;42.520;27.448;2023-07-28T04:47:52;101114.75;;;19.10;100.00
8575;BME280;4325;42.520;27.448;2023-07-28T04:50:19;101122.78;;;19.20;100.00
8575;BME280;4325;42.520;27.448;2023-07-28T04:52:47;101120.38;;;19.27;100.00
8575;BME280;4325;42.520;27.448;2023-07-28T04:55:14;101115.16;;;19.34;100.00
8575;BME280;4325;42.520;27.448;2023-07-28T04:57:41;101121.09;;;19.41;99.75
8575;BME280;4325;42.520;27.448;2023-07-28T05:00:09;101126.66;;;19.41;95.42
8575;BME280;4325;42.520;27.448;2023-07-28T05:02:36;101129.28;;;19.46;93.70
8575;BME280;4325;42.520;27.448;2023-07-28T05:05:03;101130.91;;;19.47;93.15
8575;BME280;4325;42.520;27.448;2023-07-28T05:07:30;101127.88;;;19.66;88.86
8575;BME280;4325;42.520;27.448;2023-07-28T05:09:58;101131.66;;;19.78;83.70
8575;BME280;4325;42.520;27.448;2023-07-28T05:12:25;101131.53;;;19.92;80.68
8575;BME280;4325;42.520;27.448;2023-07-28T05:14:52;101125.00;;;19.97;81.32
8575;BME280;4325;42.520;27.448;2023-07-28T05:17:19;101125.81;;;20.06;79.44
8575;BME280;4325;42.520;27.448;2023-07-28T05:19:46;101136.94;;;20.06;78.80
8575;BME280;4325;42.520;27.448;2023-07-28T05:22:13;101128.63;;;20.14;78.11
8575;BME280;4325;42.520;27.448;2023-07-28T05:24:40;101129.13;;;20.25;75.95
8575;BME280;4325;42.520;27.448;2023-07-28T05:27:08;101140.25;;;20.25;75.28
8575;BME280;4325;42.520;27.448;2023-07-28T05:29:35;101134.22;;;20.31;75.08
8575;BME280;4325;42.520;27.448;2023-07-28T05:32:03;101135.84;;;20.32;78.72
8575;BME280;4325;42.520;27.448;2023-07-28T05:34:30;101133.06;;;20.41;80.43
8575;BME280;4325;42.520;27.448;2023-07-28T05:36:57;101126.19;;;20.47;82.30
8575;BME280;4325;42.520;27.448;2023-07-28T05:39:24;101125.53;;;20.50;81.76
8575;BME280;4325;42.520;27.448;2023-07-28T05:41:51;101123.22;;;20.52;84.74
8575;BME280;4325;42.520;27.448;2023-07-28T05:44:19;101133.69;;;20.55;81.07
8575;BME280;4325;42.520;27.448;2023-07-28T05:46:46;101139.75;;;20.66;78.81
8575;BME280;4325;42.520;27.448;2023-07-28T05:49:14;101126.16;;;20.64;78.47
8575;BME280;4325;42.520;27.448;2023-07-28T05:51:40;101135.16;;;20.70;79.08
8575;BME280;4325;42.520;27.448;2023-07-28T05:54:07;101133.16;;;20.79;80.32
8575;BME280;4325;42.520;27.448;2023-07-28T05:56:34;101139.22;;;20.89;76.45
8575;BME280;4325;42.520;27.448;2023-07-28T05:59:01;101140.50;;;21.00;81.06
8575;BME280;4325;42.520;27.448;2023-07-28T06:01:29;101143.28;;;21.09;74.12
8575;BME280;4325;42.520;27.448;2023-07-28T06:03:57;101145.06;;;21.14;71.80
8575;BME280;4325;42.520;27.448;2023-07-28T06:06:24;101156.34;;;21.26;71.43
8575;BME280;4325;42.520;27.448;2023-07-28T06:08:51;101153.38;;;21.31;71.37
8575;BME280;4325;42.520;27.448;2023-07-28T06:11:18;101150.28;;;21.24;70.55
8575;BME280;4325;42.520;27.448;2023-07-28T06:13:45;101151.59;;;21.18;70.82
8575;BME280;4325;42.520;27.448;2023-07-28T06:16:12;101155.56;;;20.99;69.45
8575;BME280;4325;42.520;27.448;2023-07-28T06:18:41;101149.84;;;21.04;71.52
8575;BME280;4325;42.520;27.448;2023-07-28T06:21:08;101159.94;;;21.26;69.94
8575;BME280;4325;42.520;27.448;2023-07-28T06:23:35;101153.31;;;21.39;68.27
8575;BME280;4325;42.520;27.448;2023-07-28T06:26:02;101161.97;;;21.55;68.33
8575;BME280;4325;42.520;27.448;2023-07-28T06:28:28;101158.59;;;21.70;66.20
8575;BME280;4325;42.520;27.448;2023-07-28T06:30:56;101154.53;;;21.67;64.22
8575;BME280;4325;42.520;27.448;2023-07-28T06:33:24;101157.78;;;21.69;65.22
8575;BME280;4325;42.520;27.448;2023-07-28T06:35:52;101160.78;;;21.94;66.62
8575;BME280;4325;42.520;27.448;2023-07-28T06:38:19;101165.06;;;21.91;63.60
8575;BME280;4325;42.520;27.448;2023-07-28T06:40:46;101159.97;;;21.93;64.73
8575;BME280;4325;42.520;27.448;2023-07-28T06:43:13;101160.34;;;22.12;66.30
8575;BME280;4325;42.520;27.448;2023-07-28T06:45:40;101165.13;;;22.32;65.75
8575;BME280;4325;42.520;27.448;2023-07-28T06:48:07;101160.06;;;22.47;65.20
8575;BME280;4325;42.520;27.448;2023-07-28T06:50:34;101163.47;;;22.52;64.85
8575;BME280;4325;42.520;27.448;2023-07-28T06:53:02;101156.88;;;22.57;62.98
8575;BME280;4325;42.520;27.448;2023-07-28T06:55:30;101157.97;;;22.44;63.18
8575;BME280;4325;42.520;27.448;2023-07-28T06:57:57;101160.22;;;22.29;63.83
8575;BME280;4325;42.520;27.448;2023-07-28T07:00:24;101158.59;;;22.28;63.30
8575;BME280;4325;42.520;27.448;2023-07-28T07:02:51;101166.41;;;22.56;63.02
8575;BME280;4325;42.520;27.448;2023-07-28T07:05:18;101164.19;;;22.70;62.12
8575;BME280;4325;42.520;27.448;2023-07-28T07:07:45;101166.28;;;22.73;61.03
8575;BME280;4325;42.520;27.448;2023-07-28T07:10:13;101172.75;;;22.65;63.31
8575;BME280;4325;42.520;27.448;2023-07-28T07:12:40;101172.63;;;22.61;60.94
8575;BME280;4325;42.520;27.448;2023-07-28T07:15:08;101180.09;;;22.69;61.23
8575;BME280;4325;42.520;27.448;2023-07-28T07:17:37;101182.28;;;22.64;61.16
8575;BME280;4325;42.520;27.448;2023-07-28T07:20:06;101184.75;;;22.65;61.07
8575;BME280;4325;42.520;27.448;2023-07-28T07:22:33;101177.94;;;22.75;61.35
8575;BME280;4325;42.520;27.448;2023-07-28T07:25:00;101181.50;;;22.96;60.53
8575;BME280;4325;42.520;27.448;2023-07-28T07:27:28;101177.84;;;23.16;59.06
8575;BME280;4325;42.520;27.448;2023-07-28T07:29:55;101179.69;;;23.24;57.00
8575;BME280;4325;42.520;27.448;2023-07-28T07:32:23;101177.63;;;23.33;57.29
8575;BME280;4325;42.520;27.448;2023-07-28T07:34:50;101179.31;;;23.46;57.01
8575;BME280;4325;42.520;27.448;2023-07-28T07:37:18;101173.38;;;23.60;57.53
8575;BME280;4325;42.520;27.448;2023-07-28T07:39:45;101171.19;;;23.78;56.77
8575;BME280;4325;42.520;27.448;2023-07-28T07:42:12;101170.69;;;23.88;56.05
8575;BME280;4325;42.520;27.448;2023-07-28T07:44:41;101162.53;;;23.83;54.57
8575;BME280;4325;42.520;27.448;2023-07-28T07:47:12;101155.56;;;23.64;55.14
8575;BME280;4325;42.520;27.448;2023-07-28T07:49:40;101166.75;;;23.52;55.82
8575;BME280;4325;42.520;27.448;2023-07-28T07:52:07;101167.34;;;23.58;57.79
8575;BME280;4325;42.520;27.448;2023-07-28T07:54:35;101163.72;;;23.57;55.15
8575;BME280;4325;42.520;27.448;2023-07-28T07:57:02;101167.34;;;23.58;55.44
8575;BME280;4325;42.520;27.448;2023-07-28T07:59:29;101164.88;;;23.56;55.29
8575;BME280;4325;42.520;27.448;2023-07-28T08:01:59;101150.34;;;23.75;55.29
8575;BME280;4325;42.520;27.448;2023-07-28T08:04:29;101158.94;;;23.94;54.86
8575;BME280;4325;42.520;27.448;2023-07-28T08:06:56;101152.50;;;24.18;55.95
8575;BME280;4325;42.520;27.448;2023-07-28T08:09:23;101156.88;;;24.43;54.50
8575;BME280;4325;42.520;27.448;2023-07-28T08:11:50;101153.97;;;24.40;52.56
8575;BME280;4325;42.520;27.448;2023-07-28T08:14:18;101150.00;;;24.41;52.08
8575;BME280;4325;42.520;27.448;2023-07-28T08:16:45;101152.03;;;24.56;49.39
8575;BME280;4325;42.520;27.448;2023-07-28T08:19:13;101155.53;;;24.65;48.70
8575;BME280;4325;42.520;27.448;2023-07-28T08:21:40;101151.00;;;24.88;47.39
8575;BME280;4325;42.520;27.448;2023-07-28T08:24:07;101151.69;;;25.13;47.27
8575;BME280;4325;42.520;27.448;2023-07-28T08:26:34;101150.38;;;25.53;46.28
8575;BME280;4325;42.520;27.448;2023-07-28T08:29:01;101156.25;;;25.80;43.82
8575;BME280;4325;42.520;27.448;2023-07-28T08:31:28;101158.63;;;26.47;42.91
8575;BME280;4325;42.520;27.448;2023-07-28T08:33:55;101153.94;;;27.12;41.55
8575;BME280;4325;42.520;27.448;2023-07-28T08:36:23;101157.16;;;27.82;40.20
8575;BME280;4325;42.520;27.448;2023-07-28T08:38:50;101147.97;;;29.04;38.41
8575;BME280;4325;42.520;27.448;2023-07-28T08:41:17;101159.75;;;30.69;35.58
8575;BME280;4325;42.520;27.448;2023-07-28T08:43:44;101155.53;;;31.50;33.99
8575;BME280;4325;42.520;27.448;2023-07-28T08:46:11;101149.06;;;32.02;32.61
8575;BME280;4325;42.520;27.448;2023-07-28T08:48:39;101149.44;;;33.19;30.33
8575;BME280;4325;42.520;27.448;2023-07-28T08:51:06;101148.06;;;33.85;29.47
8575;BME280;4325;42.520;27.448;2023-07-28T08:53:35;101146.41;;;33.88;28.76
8575;BME280;4325;42.520;27.448;2023-07-28T08:56:02;101136.09;;;33.67;28.72
8575;BME280;4325;42.520;27.448;2023-07-28T08:58:29;101135.91;;;35.20;27.13
8575;BME280;4325;42.520;27.448;2023-07-28T09:00:56;101133.63;;;35.61;26.56
8575;BME280;4325;42.520;27.448;2023-07-28T09:03:26;101129.91;;;36.70;25.18
8575;BME280;4325;42.520;27.448;2023-07-28T09:05:59;101132.06;;;35.57;26.21
8575;BME280;4325;42.520;27.448;2023-07-28T09:08:25;101131.22;;;34.46;27.23
8575;BME280;4325;42.520;27.448;2023-07-28T09:10:53;101120.09;;;34.59;26.79
8575;BME280;4325;42.520;27.448;2023-07-28T09:13:21;101125.75;;;35.92;26.25
8575;BME280;4325;42.520;27.448;2023-07-28T09:15:47;101125.41;;;36.88;23.56
8575;BME280;4325;42.520;27.448;2023-07-28T09:18:16;101118.84;;;36.13;24.38
8575;BME280;4325;42.520;27.448;2023-07-28T09:20:43;101117.22;;;33.87;25.37
8575;BME280;4325;42.520;27.448;2023-07-28T09:23:10;101107.53;;;36.09;24.14
8575;BME280;4325;42.520;27.448;2023-07-28T09:25:38;101117.97;;;36.75;22.75
8575;BME280;4325;42.520;27.448;2023-07-28T09:28:06;101115.69;;;36.07;23.81
8575;BME280;4325;42.520;27.448;2023-07-28T09:30:47;101113.97;;;36.13;23.53
8575;BME280;4325;42.520;27.448;2023-07-28T09:33:28;101107.88;;;35.42;24.26
8575;BME280;4325;42.520;27.448;2023-07-28T09:35:55;101104.31;;;36.47;23.49
8575;BME280;4325;42.520;27.448;2023-07-28T09:38:24;101110.00;;;35.84;23.75
8575;BME280;4325;42.520;27.448;2023-07-28T09:40:56;101102.84;;;35.99;23.27
8575;BME280;4325;42.520;27.448;2023-07-28T09:43:26;101104.38;;;36.04;23.16
8575;BME280;4325;42.520;27.448;2023-07-28T09:45:53;101106.31;;;37.37;22.07
8575;BME280;4325;42.520;27.448;2023-07-28T09:48:21;101099.44;;;37.67;22.63
8575;BME280;4325;42.520;27.448;2023-07-28T09:50:48;101094.69;;;36.96;22.71
8575;BME280;4325;42.520;27.448;2023-07-28T09:53:15;101088.44;;;38.80;21.00
8575;BME280;4325;42.520;27.448;2023-07-28T09:55:43;101084.91;;;38.35;21.23
8575;BME280;4325;42.520;27.448;2023-07-28T09:58:11;101091.13;;;39.72;20.39
8575;BME280;4325;42.520;27.448;2023-07-28T10:00:40;101091.59;;;39.58;20.20
8575;BME280;4325;42.520;27.448;2023-07-28T10:03:08;101089.31;;;39.53;20.05
8575;BME280;4325;42.520;27.448;2023-07-28T10:05:35;101074.88;;;37.86;21.30
8575;BME280;4325;42.520;27.448;2023-07-28T10:08:04;101067.44;;;38.58;20.23
8575;BME280;4325;42.520;27.448;2023-07-28T10:10:32;101060.25;;;41.42;18.64
8575;BME280;4325;42.520;27.448;2023-07-28T10:13:21;101060.88;;;40.58;18.30
8575;BME280;4325;42.520;27.448;2023-07-28T10:15:53;101061.78;;;39.68;18.88
8575;BME280;4325;42.520;27.448;2023-07-28T10:18:21;101050.81;;;40.53;19.05
8575;BME280;4325;42.520;27.448;2023-07-28T10:20:48;101046.50;;;41.28;18.31
8575;BME280;4325;42.520;27.448;2023-07-28T10:23:17;101045.50;;;39.18;19.97
8575;BME280;4325;42.520;27.448;2023-07-28T10:25:46;101043.03;;;40.10;18.96
8575;BME280;4325;42.520;27.448;2023-07-28T10:28:31;101047.41;;;40.46;18.72
8575;BME280;4325;42.520;27.448;2023-07-28T10:31:06;101042.50;;;40.03;19.07
8575;BME280;4325;42.520;27.448;2023-07-28T10:33:37;101035.03;;;39.37;19.70
8575;BME280;4325;42.520;27.448;2023-07-28T10:36:15;101031.03;;;39.09;19.94
8575;BME280;4325;42.520;27.448;2023-07-28T10:38:42;101028.63;;;39.08;20.05
8575;BME280;4325;42.520;27.448;2023-07-28T10:41:12;101023.41;;;37.86;21.24
8575;BME280;4325;42.520;27.448;2023-07-28T10:43:40;101022.19;;;36.58;22.22
8575;BME280;4325;42.520;27.448;2023-07-28T10:46:09;101023.97;;;36.68;21.96
8575;BME280;4325;42.520;27.448;2023-07-28T10:48:41;101011.13;;;36.60;21.63
8575;BME280;4325;42.520;27.448;2023-07-28T10:51:08;101011.41;;;36.46;21.50
8575;BME280;4325;42.520;27.448;2023-07-28T10:53:37;101009.50;;;36.59;21.32
8575;BME280;4325;42.520;27.448;2023-07-28T10:56:05;101002.56;;;36.76;20.98
8575;BME280;4325;42.520;27.448;2023-07-28T10:58:34;101000.81;;;37.30;21.16
8575;BME280;4325;42.520;27.448;2023-07-28T11:01:02;100994.59;;;37.64;20.91
8575;BME280;4325;42.520;27.448;2023-07-28T11:03:30;100998.72;;;38.46;20.35
8575;BME280;4325;42.520;27.448;2023-07-28T11:05:57;101010.22;;;39.43;19.67
8575;BME280;4325;42.520;27.448;2023-07-28T11:08:24;101001.84;;;39.61;18.97
8575;BME280;4325;42.520;27.448;2023-07-28T11:10:52;100992.84;;;37.38;20.70
8575;BME280;4325;42.520;27.448;2023-07-28T11:13:19;100992.56;;;38.47;20.54
8575;BME280;4325;42.520;27.448;2023-07-28T11:15:45;100993.13;;;38.42;20.57
8575;BME280;4325;42.520;27.448;2023-07-28T11:18:15;100992.22;;;38.45;19.99
8575;BME280;4325;42.520;27.448;2023-07-28T11:20:44;100979.69;;;38.26;20.60
8575;BME280;4325;42.520;27.448;2023-07-28T11:23:14;100969.59;;;38.09;20.25
8575;BME280;4325;42.520;27.448;2023-07-28T11:25:43;100967.78;;;38.15;20.54
8575;BME280;4325;42.520;27.448;2023-07-28T11:28:12;100964.53;;;37.88;20.51
8575;BME280;4325;42.520;27.448;2023-07-28T11:30:39;100968.13;;;37.47;20.83
8575;BME280;4325;42.520;27.448;2023-07-28T11:33:09;100960.59;;;37.53;20.35
8575;BME280;4325;42.520;27.448;2023-07-28T11:35:38;100956.38;;;40.46;18.98
8575;BME280;4325;42.520;27.448;2023-07-28T11:38:08;100955.84;;;40.39;18.76
8575;BME280;4325;42.520;27.448;2023-07-28T11:40:36;100956.66;;;38.05;20.58
8575;BME280;4325;42.520;27.448;2023-07-28T11:43:03;100942.84;;;37.46;20.76
8575;BME280;4325;42.520;27.448;2023-07-28T11:45:30;100951.41;;;37.01;22.43
8575;BME280;4325;42.520;27.448;2023-07-28T11:47:59;100945.75;;;37.58;23.86
8575;BME280;4325;42.520;27.448;2023-07-28T11:50:29;100934.41;;;37.26;23.05
8575;BME280;4325;42.520;27.448;2023-07-28T11:52:57;100938.16;;;37.39;20.96
8575;BME280;4325;42.520;27.448;2023-07-28T11:55:25;100930.34;;;36.95;21.24
8575;BME280;4325;42.520;27.448;2023-07-28T11:57:53;100925.63;;;37.49;20.98
8575;BME280;4325;42.520;27.448;2023-07-28T12:00:28;100931.50;;;37.71;20.27
8575;BME280;4325;42.520;27.448;2023-07-28T12:03:03;100937.09;;;37.17;20.62
8575;BME280;4325;42.520;27.448;2023-07-28T12:05:31;100929.44;;;36.66;20.66
8575;BME280;4325;42.520;27.448;2023-07-28T12:07:58;100926.25;;;36.96;20.96
8575;BME280;4325;42.520;27.448;2023-07-28T12:10:27;100917.84;;;37.05;20.64
8575;BME280;4325;42.520;27.448;2023-07-28T12:12:54;100922.28;;;37.51;20.31
8575;BME280;4325;42.520;27.448;2023-07-28T12:15:22;100921.31;;;37.57;20.11
8575;BME280;4325;42.520;27.448;2023-07-28T12:18:03;100918.03;;;37.72;19.64
8575;BME280;4325;42.520;27.448;2023-07-28T12:20:34;100918.06;;;39.10;19.22
8575;BME280;4325;42.520;27.448;2023-07-28T12:23:01;100922.03;;;38.78;18.92
8575;BME280;4325;42.520;27.448;2023-07-28T12:25:29;100905.09;;;38.08;20.30
8575;BME280;4325;42.520;27.448;2023-07-28T12:27:56;100902.28;;;39.06;19.80
8575;BME280;4325;42.520;27.448;2023-07-28T12:30:23;100894.59;;;38.30;21.21
8575;BME280;4325;42.520;27.448;2023-07-28T12:32:51;100901.66;;;37.59;22.51
8575;BME280;4325;42.520;27.448;2023-07-28T12:35:18;100902.09;;;37.58;23.16
8575;BME280;4325;42.520;27.448;2023-07-28T12:37:49;100894.47;;;38.34;22.23
8575;BME280;4325;42.520;27.448;2023-07-28T12:40:16;100887.16;;;38.33;23.15
8575;BME280;4325;42.520;27.448;2023-07-28T12:42:44;100882.88;;;39.10;21.92
8575;BME280;4325;42.520;27.448;2023-07-28T12:45:11;100888.38;;;37.94;22.81
8575;BME280;4325;42.520;27.448;2023-07-28T12:47:38;100878.00;;;37.59;21.27
8575;BME280;4325;42.520;27.448;2023-07-28T12:50:06;100870.66;;;38.12;23.34
8575;BME280;4325;42.520;27.448;2023-07-28T12:52:33;100868.47;;;40.40;21.91
8575;BME280;4325;42.520;27.448;2023-07-28T12:55:00;100870.41;;;42.06;20.53
8575;BME280;4325;42.520;27.448;2023-07-28T12:57:26;100867.06;;;42.40;20.25
8575;BME280;4325;42.520;27.448;2023-07-28T12:59:55;100864.31;;;42.79;19.36